createdAt,value
2019-04-21T00:01:50.659Z,60.70
2019-04-21T00:04:33.040Z,60.60
2019-04-21T00:07:09.923Z,60.20
2019-04-21T00:09:39.783Z,60.00
2019-04-21T00:12:08.939Z,59.70
2019-04-21T00:14:31.597Z,59.60
2019-04-21T00:16:56.113Z,59.80
2019-04-21T00:19:29.835Z,59.90
2019-04-21T00:22:08.615Z,59.70
2019-04-21T00:24:41.427Z,59.70
2019-04-21T00:27:11.181Z,59.50
2019-04-21T00:29:44.491Z,59.30
2019-04-21T00:32:10.100Z,59.30
2019-04-21T00:34:26.425Z,59.60
2019-04-21T00:37:08.508Z,59.50
2019-04-21T00:42:13.909Z,59.60
2019-04-21T00:44:38.118Z,59.30
2019-04-21T00:47:14.030Z,58.70
2019-04-21T00:49:45.338Z,58.30
2019-04-21T00:52:40.183Z,58.00
2019-04-21T00:55:10.108Z,58.20
2019-04-21T00:57:38.795Z,57.10
2019-04-21T01:00:04.474Z,56.30
2019-04-21T01:02:40.167Z,55.70
2019-04-21T01:05:04.857Z,55.10
2019-04-21T01:07:31.909Z,55.10
2019-04-21T01:09:54.060Z,54.00
2019-04-21T01:12:33.473Z,54.00
2019-04-21T01:15:03.811Z,53.50
2019-04-21T01:17:31.169Z,53.60
2019-04-21T01:19:59.616Z,53.60
2019-04-21T01:22:11.226Z,53.50
2019-04-21T01:24:43.775Z,53.40
2019-04-21T01:27:18.652Z,53.20
2019-04-21T01:30:02.857Z,52.90
2019-04-21T01:32:29.267Z,52.60
2019-04-21T01:35:02.690Z,53.00
2019-04-21T01:37:39.931Z,52.80
2019-04-21T01:40:14.352Z,52.70
2019-04-21T01:42:33.299Z,52.70
2019-04-21T01:44:59.916Z,53.10
2019-04-21T01:47:26.189Z,53.60
2019-04-21T01:49:53.297Z,54.30
2019-04-21T01:52:50.231Z,54.80
2019-04-21T01:55:06.249Z,54.80
2019-04-21T01:57:34.509Z,54.80
2019-04-21T01:59:58.659Z,55.10
2019-04-21T02:02:36.108Z,55.00
2019-04-21T02:05:10.494Z,54.80
2019-04-21T02:07:38.966Z,54.30
2019-04-21T02:10:11.233Z,54.70
2019-04-21T02:12:40.620Z,53.90
2019-04-21T02:15:14.285Z,54.20
2019-04-21T02:17:40.692Z,53.80
2019-04-21T02:20:05.403Z,53.40
2019-04-21T02:22:58.759Z,53.30
2019-04-21T02:25:13.983Z,53.30
2019-04-21T02:27:42.957Z,53.00
2019-04-21T02:30:23.613Z,52.70
2019-04-21T02:33:05.926Z,53.00
2019-04-21T02:35:30.565Z,53.20
2019-04-21T02:40:25.639Z,52.80
2019-04-21T02:42:57.751Z,53.00
2019-04-21T02:45:22.897Z,52.90
2019-04-21T02:47:57.307Z,52.70
2019-04-21T02:52:55.535Z,52.40
2019-04-21T02:55:22.023Z,52.70
2019-04-21T02:58:04.357Z,52.70
2019-04-21T03:03:16.116Z,52.50
2019-04-21T03:06:15.346Z,52.60
2019-04-21T03:16:11.818Z,52.70
2019-04-21T03:26:14.348Z,52.80
2019-04-21T03:28:37.092Z,52.80
2019-04-21T03:31:35.984Z,52.60
2019-04-21T03:36:33.344Z,52.60
2019-04-21T03:41:04.180Z,52.30
2019-04-21T03:43:34.851Z,52.70
2019-04-21T03:46:26.604Z,53.30
2019-04-21T03:48:38.504Z,52.90
2019-04-21T03:51:02.656Z,52.70
2019-04-21T03:53:40.443Z,53.20
2019-04-21T03:56:01.347Z,53.30
2019-04-21T03:58:46.814Z,53.00
2019-04-21T04:01:07.821Z,52.70
2019-04-21T04:04:06.266Z,52.80
2019-04-21T04:06:45.098Z,53.00
2019-04-21T04:11:44.179Z,53.30
2019-04-21T04:16:50.392Z,53.30
2019-04-21T04:19:06.136Z,53.10
2019-04-21T04:21:47.695Z,52.90
2019-04-21T04:24:16.867Z,52.90
2019-04-21T04:26:53.504Z,53.10
2019-04-21T04:29:12.512Z,53.20
2019-04-21T04:31:53.505Z,53.00
2019-04-21T04:34:12.605Z,53.10
2019-04-21T04:39:35.838Z,53.20
2019-04-21T04:47:04.754Z,54.00
2019-04-21T04:49:40.067Z,53.90
2019-04-21T04:52:12.294Z,54.00
2019-04-21T04:54:32.354Z,54.20
2019-04-21T04:56:58.960Z,54.30
2019-04-21T04:59:33.667Z,54.40
2019-04-21T05:04:28.327Z,54.60
2019-04-21T05:09:24.593Z,55.00
2019-04-21T05:11:50.595Z,55.00
2019-04-21T05:14:21.505Z,55.00
2019-04-21T05:21:43.908Z,55.20
2019-04-21T05:24:13.805Z,55.10
2019-04-21T05:26:45.973Z,55.10
2019-04-21T05:29:09.018Z,55.00
2019-04-21T05:32:00.431Z,55.20
2019-04-21T05:34:27.667Z,54.90
2019-04-21T05:37:00.953Z,54.90
2019-04-21T05:39:40.978Z,54.90
2019-04-21T05:42:03.950Z,55.40
2019-04-21T05:45:00.202Z,55.20
2019-04-21T05:47:24.976Z,55.10
2019-04-21T05:49:48.245Z,55.10
2019-04-21T05:52:14.567Z,55.10
2019-04-21T05:57:14.401Z,55.40
2019-04-21T05:59:51.488Z,55.50
2019-04-21T06:02:23.671Z,55.20
2019-04-21T06:07:23.148Z,55.30
2019-04-21T06:09:57.211Z,55.70
2019-04-21T06:12:21.171Z,55.10
2019-04-21T06:14:55.895Z,54.60
2019-04-21T06:17:29.785Z,54.70
2019-04-21T06:19:57.235Z,54.40
2019-04-21T06:22:22.406Z,54.20
2019-04-21T06:25:23.898Z,54.10
2019-04-21T06:27:29.862Z,53.80
2019-04-21T06:29:54.705Z,53.90
2019-04-21T06:32:38.170Z,54.20
2019-04-21T06:37:39.625Z,53.80
2019-04-21T06:40:07.661Z,53.40
2019-04-21T06:42:26.675Z,53.20
2019-04-21T06:45:01.881Z,52.90
2019-04-21T06:47:30.011Z,52.80
2019-04-21T06:49:58.916Z,52.70
2019-04-21T06:52:45.602Z,52.70
2019-04-21T06:55:02.503Z,52.80
2019-04-21T06:57:28.954Z,53.20
2019-04-21T06:59:55.609Z,52.60
2019-04-21T07:05:00.248Z,52.90
2019-04-21T07:07:27.769Z,53.20
2019-04-21T07:10:06.877Z,53.30
2019-04-21T07:12:28.943Z,52.60
2019-04-21T07:14:59.278Z,52.80
2019-04-21T07:17:30.547Z,52.80
2019-04-21T07:20:02.421Z,52.50
2019-04-21T07:22:31.237Z,52.90
2019-04-21T07:25:03.112Z,52.90
2019-04-21T07:27:31.851Z,52.70
2019-04-21T07:30:04.928Z,52.60
2019-04-21T07:32:40.147Z,52.60
2019-04-21T07:35:03.881Z,52.80
2019-04-21T07:37:33.249Z,52.20
2019-04-21T07:39:54.581Z,51.70
2019-04-21T07:42:26.684Z,51.90
2019-04-21T07:44:53.455Z,51.80
2019-04-21T07:47:28.450Z,52.30
2019-04-21T07:50:00.619Z,52.20
2019-04-21T07:52:58.159Z,52.50
2019-04-21T07:57:34.487Z,51.40
2019-04-21T08:00:16.111Z,51.60
2019-04-21T08:02:34.294Z,51.50
2019-04-21T08:07:48.023Z,54.00
2019-04-21T08:10:07.934Z,51.20
2019-04-21T08:12:29.923Z,50.90
2019-04-21T08:15:16.903Z,52.00
2019-04-21T08:17:36.648Z,51.70
2019-04-21T08:20:09.246Z,50.00
2019-04-21T08:22:41.361Z,50.70
2019-04-21T08:25:11.248Z,50.50
2019-04-21T08:27:45.796Z,50.20
2019-04-21T08:30:08.987Z,50.80
2019-04-21T08:32:57.117Z,51.60
2019-04-21T08:35:51.046Z,50.00
2019-04-21T08:37:39.659Z,49.80
2019-04-21T08:40:09.868Z,49.60
2019-04-21T08:42:38.614Z,49.60
2019-04-21T08:45:10.742Z,49.50
2019-04-21T08:47:39.714Z,51.20
2019-04-21T08:50:08.279Z,49.70
2019-04-21T08:52:44.353Z,49.10
2019-04-21T08:55:22.540Z,49.30
2019-04-21T08:58:08.470Z,48.30
2019-04-21T09:00:36.758Z,48.70
2019-04-21T09:03:02.552Z,48.90
2019-04-21T09:05:31.220Z,48.40
2019-04-21T09:07:57.377Z,48.90
2019-04-21T09:10:28.360Z,48.20
2019-04-21T09:13:00.147Z,49.10
2019-04-21T09:15:31.158Z,48.40
2019-04-21T09:17:53.670Z,48.20
2019-04-21T09:20:33.778Z,47.70
2019-04-21T09:23:04.662Z,47.10
2019-04-21T09:25:35.995Z,47.10
2019-04-21T09:28:00.655Z,47.50
2019-04-21T09:30:13.022Z,47.60
2019-04-21T09:32:42.481Z,46.40
2019-04-21T09:35:14.799Z,45.90
2019-04-21T09:37:51.653Z,45.70
2019-04-21T09:40:13.220Z,46.20
2019-04-21T09:42:50.577Z,46.50
2019-04-21T09:45:13.615Z,45.80
2019-04-21T09:47:51.023Z,46.20
2019-04-21T09:50:13.447Z,46.10
2019-04-21T09:52:52.269Z,46.30
2019-04-21T09:55:17.496Z,44.80
2019-04-21T09:57:48.511Z,45.10
2019-04-21T10:00:19.511Z,44.50
2019-04-21T10:02:54.414Z,44.20
2019-04-21T10:05:14.436Z,43.30
2019-04-21T10:07:44.251Z,44.00
2019-04-21T10:10:13.012Z,44.90
2019-04-21T10:12:41.610Z,44.70
2019-04-21T10:15:10.666Z,43.70
2019-04-21T10:17:41.782Z,43.40
2019-04-21T10:20:11.699Z,43.70
2019-04-21T10:22:41.344Z,43.60
2019-04-21T10:25:10.569Z,44.30
2019-04-21T10:27:39.338Z,44.20
2019-04-21T10:30:11.981Z,43.10
2019-04-21T10:32:40.726Z,43.40
2019-04-21T10:35:10.940Z,42.80
2019-04-21T10:37:52.666Z,42.40
2019-04-21T10:40:11.761Z,41.40
2019-04-21T10:42:40.621Z,42.20
2019-04-21T10:45:10.406Z,42.10
2019-04-21T10:47:39.298Z,41.10
2019-04-21T10:50:08.758Z,41.60
2019-04-21T10:52:55.229Z,41.00
2019-04-21T10:55:42.715Z,41.70
2019-04-21T10:58:10.682Z,41.70
2019-04-21T11:00:42.010Z,41.50
2019-04-21T11:03:29.131Z,41.70
2019-04-21T11:06:08.667Z,41.20
2019-04-21T11:08:41.508Z,41.40
2019-04-21T11:11:07.998Z,41.90
2019-04-21T11:13:36.923Z,42.10
2019-04-21T11:16:05.595Z,41.00
2019-04-21T11:18:34.099Z,42.50
2019-04-21T11:21:03.001Z,40.80
2019-04-21T11:23:33.095Z,42.20
2019-04-21T11:26:02.264Z,42.20
2019-04-21T11:28:31.212Z,41.80
2019-04-21T11:31:00.607Z,41.40
2019-04-21T11:33:29.337Z,41.70
2019-04-21T11:35:57.870Z,41.50
2019-04-21T11:38:33.494Z,41.40
2019-04-21T11:41:01.109Z,41.90
2019-04-21T11:43:30.711Z,42.10
2019-04-21T11:46:00.196Z,40.80
2019-04-21T11:48:30.423Z,40.60
2019-04-21T11:50:59.386Z,40.20
2019-04-21T11:53:28.743Z,40.00
2019-04-21T11:55:58.588Z,40.00
2019-04-21T11:58:27.838Z,39.40
2019-04-21T12:00:58.345Z,39.50
2019-04-21T12:03:27.517Z,39.00
2019-04-21T12:05:57.381Z,39.70
2019-04-21T12:08:34.359Z,39.90
2019-04-21T12:10:57.609Z,40.50
2019-04-21T12:13:26.195Z,41.00
2019-04-21T12:15:54.947Z,41.40
2019-04-21T12:18:26.347Z,41.90
2019-04-21T12:20:53.764Z,42.70
2019-04-21T12:23:22.648Z,42.30
2019-04-21T12:25:51.674Z,42.10
2019-04-21T12:28:21.777Z,42.20
2019-04-21T12:30:53.642Z,42.00
2019-04-21T12:33:27.916Z,40.80
2019-04-21T12:35:57.717Z,40.20
2019-04-21T12:38:35.359Z,40.00
2019-04-21T12:40:56.902Z,39.50
2019-04-21T12:43:26.456Z,39.70
2019-04-21T12:45:55.890Z,38.50
2019-04-21T12:48:24.458Z,39.20
2019-04-21T12:50:54.222Z,39.60
2019-04-21T12:53:23.528Z,39.60
2019-04-21T12:55:53.693Z,39.80
2019-04-21T12:58:23.521Z,39.50
2019-04-21T13:00:52.189Z,39.20
2019-04-21T13:03:23.306Z,39.00
2019-04-21T13:05:51.701Z,38.60
2019-04-21T13:08:21.685Z,37.50
2019-04-21T13:10:51.865Z,37.00
2019-04-21T13:13:21.864Z,36.30
2019-04-21T13:15:51.671Z,37.20
2019-04-21T13:18:20.579Z,36.70
2019-04-21T13:20:49.234Z,36.60
2019-04-21T13:23:18.901Z,34.50
2019-04-21T13:25:47.914Z,32.30
2019-04-21T13:28:16.647Z,30.40
2019-04-21T13:30:46.309Z,30.10
2019-04-21T13:33:15.444Z,29.40
2019-04-21T13:35:44.801Z,29.60
2019-04-21T13:38:25.925Z,28.60
2019-04-21T13:41:03.894Z,28.60
2019-04-21T13:43:15.291Z,28.20
2019-04-21T13:45:44.033Z,28.80
2019-04-21T13:48:12.748Z,28.30
2019-04-21T13:50:43.525Z,27.30
2019-04-21T13:53:12.475Z,27.50
2019-04-21T13:55:42.511Z,27.30
2019-04-21T13:58:12.470Z,26.70
2019-04-21T14:00:42.054Z,26.70
2019-04-21T14:03:10.723Z,26.70
2019-04-21T14:05:42.346Z,26.10
2019-04-21T14:08:11.349Z,26.30
2019-04-21T14:10:40.034Z,25.30
2019-04-21T14:13:08.710Z,26.20
2019-04-21T14:15:37.856Z,26.40
2019-04-21T14:18:06.881Z,26.20
2019-04-21T14:20:35.630Z,26.40
2019-04-21T14:23:15.645Z,25.20
2019-04-21T14:25:35.514Z,25.70
2019-04-21T14:28:06.112Z,25.20
2019-04-21T14:30:36.398Z,25.10
2019-04-21T14:33:05.276Z,24.30
2019-04-21T14:35:34.816Z,24.30
2019-04-21T14:38:04.832Z,24.40
2019-04-21T14:40:35.190Z,24.80
2019-04-21T14:43:03.981Z,24.70
2019-04-21T14:45:50.563Z,25.00
2019-04-21T14:48:37.078Z,24.80
2019-04-21T14:51:09.175Z,25.90
2019-04-21T14:53:43.628Z,25.70
2019-04-21T14:56:13.268Z,25.70
2019-04-21T14:58:43.217Z,26.60
2019-04-21T15:01:11.802Z,26.90
2019-04-21T15:03:41.599Z,26.60
2019-04-21T15:06:11.521Z,26.60
2019-04-21T15:08:40.362Z,26.80
2019-04-21T15:11:09.539Z,27.80
2019-04-21T15:13:39.616Z,28.60
2019-04-21T15:16:08.943Z,29.10
2019-04-21T15:18:38.895Z,29.50
2019-04-21T15:21:07.885Z,29.80
2019-04-21T15:23:36.571Z,30.30
2019-04-21T15:26:06.093Z,31.90
2019-04-21T15:28:37.265Z,32.70
2019-04-21T15:31:05.121Z,33.80
2019-04-21T15:33:34.849Z,34.40
2019-04-21T15:36:04.965Z,34.00
2019-04-21T15:38:34.026Z,35.20
2019-04-21T15:41:06.426Z,35.80
2019-04-21T15:43:33.477Z,35.20
2019-04-21T15:46:02.621Z,35.00
2019-04-21T15:48:31.287Z,35.30
2019-04-21T15:51:04.864Z,35.40
2019-04-21T15:53:31.989Z,35.30
2019-04-21T15:56:08.825Z,35.70
2019-04-21T15:58:48.425Z,36.40
2019-04-21T16:01:32.412Z,37.00
2019-04-21T16:04:02.810Z,37.60
2019-04-21T16:06:31.923Z,38.50
2019-04-21T16:09:02.874Z,38.90
2019-04-21T16:11:31.700Z,39.40
2019-04-21T16:14:01.849Z,39.40
2019-04-21T16:16:32.343Z,39.10
2019-04-21T16:19:01.007Z,39.10
2019-04-21T16:21:29.708Z,39.10
2019-04-21T16:23:58.450Z,39.40
2019-04-21T16:26:28.692Z,39.70
2019-04-21T16:28:57.526Z,39.80
2019-04-21T16:31:26.211Z,39.70
2019-04-21T16:33:55.003Z,39.70
2019-04-21T16:36:23.691Z,39.70
2019-04-21T16:38:53.596Z,39.80
2019-04-21T16:41:22.475Z,40.00
2019-04-21T16:43:51.402Z,39.90
2019-04-21T16:46:21.133Z,40.10
2019-04-21T16:48:51.579Z,40.30
2019-04-21T16:51:20.453Z,40.70
2019-04-21T16:53:56.061Z,41.50
2019-04-21T16:56:26.934Z,41.60
2019-04-21T16:58:57.257Z,41.90
2019-04-21T17:01:29.585Z,42.10
2019-04-21T17:03:58.351Z,42.40
2019-04-21T17:06:27.124Z,42.60
2019-04-21T17:08:56.769Z,43.80
2019-04-21T17:11:30.416Z,43.40
2019-04-21T17:13:56.621Z,43.80
2019-04-21T17:16:50.810Z,44.40
2019-04-21T17:19:05.299Z,44.70
2019-04-21T17:21:28.068Z,45.10
2019-04-21T17:23:56.771Z,45.20
2019-04-21T17:26:25.262Z,45.50
2019-04-21T17:28:54.315Z,45.90
2019-04-21T17:31:24.481Z,46.20
2019-04-21T17:34:02.052Z,47.00
2019-04-21T17:36:25.083Z,46.60
2019-04-21T17:38:54.113Z,46.90
2019-04-21T17:41:33.372Z,47.00
2019-04-21T17:43:56.043Z,47.20
2019-04-21T17:46:34.527Z,47.10
2019-04-21T17:48:54.974Z,47.30
2019-04-21T17:51:31.932Z,47.30
2019-04-21T17:54:03.070Z,47.20
2019-04-21T17:56:59.638Z,47.10
2019-04-21T17:59:28.006Z,47.10
2019-04-21T18:01:54.540Z,47.30
2019-04-21T18:04:24.327Z,47.50
2019-04-21T18:06:56.508Z,47.30
2019-04-21T18:09:36.761Z,47.60
2019-04-21T18:12:06.835Z,48.20
2019-04-21T18:14:13.684Z,48.50
2019-04-21T18:16:46.213Z,49.10
2019-04-21T18:19:12.992Z,49.10
2019-04-21T18:21:56.811Z,49.20
2019-04-21T18:24:35.315Z,49.40
2019-04-21T18:26:57.313Z,51.70
2019-04-21T18:29:23.990Z,50.00
2019-04-21T18:31:54.202Z,50.10
2019-04-21T18:34:29.264Z,50.30
2019-04-21T18:37:04.579Z,50.40
2019-04-21T18:39:46.434Z,51.10
2019-04-21T18:42:26.292Z,50.50
2019-04-21T18:45:22.415Z,50.60
2019-04-21T18:47:28.641Z,54.30
2019-04-21T18:49:44.127Z,52.30
2019-04-21T18:52:22.458Z,51.70
2019-04-21T18:55:00.157Z,50.90
2019-04-21T18:57:22.842Z,50.90
2019-04-21T18:59:47.078Z,51.00
2019-04-21T19:02:18.086Z,51.00
2019-04-21T19:04:44.967Z,51.10
2019-04-21T19:07:25.247Z,51.40
2019-04-21T19:12:50.740Z,51.40
2019-04-21T19:14:57.904Z,51.50
2019-04-21T19:20:24.163Z,51.30
2019-04-21T19:22:34.581Z,51.10
2019-04-21T19:25:07.287Z,51.00
2019-04-21T19:27:31.013Z,50.80
2019-04-21T19:32:33.582Z,50.40
2019-04-21T19:34:48.556Z,50.20
2019-04-21T19:37:20.904Z,50.10
2019-04-21T19:40:00.379Z,50.10
2019-04-21T19:42:25.599Z,49.80
2019-04-21T19:45:03.671Z,49.60
2019-04-21T19:47:42.914Z,49.60
2019-04-21T19:50:08.104Z,49.30
2019-04-21T19:52:31.979Z,49.20
2019-04-21T19:54:50.468Z,49.10
2019-04-21T19:57:18.801Z,49.00
2019-04-21T19:59:51.133Z,48.80
2019-04-21T20:02:18.645Z,48.80
2019-04-21T20:04:54.223Z,48.70
2019-04-21T20:07:32.891Z,48.60
2019-04-21T20:10:11.707Z,48.60
2019-04-21T20:12:40.126Z,48.40
2019-04-21T20:15:16.724Z,48.40
2019-04-21T20:17:36.521Z,48.60
2019-04-21T20:19:48.296Z,48.80
2019-04-21T20:22:16.875Z,48.70
2019-04-21T20:24:53.921Z,48.70
2019-04-21T20:27:24.068Z,49.50
2019-04-21T20:30:01.769Z,48.80
2019-04-21T20:32:36.687Z,48.80
2019-04-21T20:35:06.749Z,49.50
2019-04-21T20:37:32.101Z,48.80
2019-04-21T20:39:54.917Z,48.80
2019-04-21T20:42:27.966Z,48.70
2019-04-21T20:45:22.045Z,48.50
2019-04-21T20:47:27.184Z,48.40
2019-04-21T20:50:03.353Z,48.60
2019-04-21T20:52:36.971Z,48.60
2019-04-21T20:55:02.189Z,48.40
2019-04-21T20:57:30.160Z,48.70
2019-04-21T21:00:05.796Z,48.60
2019-04-21T21:02:37.179Z,49.00
2019-04-21T21:04:57.172Z,49.20
2019-04-21T21:07:44.195Z,49.20
2019-04-21T21:10:11.978Z,49.10
2019-04-21T21:12:47.357Z,49.30
2019-04-21T21:15:00.121Z,49.40
2019-04-21T21:17:45.471Z,49.40
2019-04-21T21:20:14.512Z,49.70
2019-04-21T21:22:36.733Z,49.80
2019-04-21T21:25:13.171Z,49.50
2019-04-21T21:27:32.237Z,49.40
2019-04-21T21:30:05.889Z,49.20
2019-04-21T21:32:37.375Z,49.30
2019-04-21T21:35:08.322Z,49.10
2019-04-21T21:37:42.624Z,49.10
2019-04-21T21:40:09.421Z,48.90
2019-04-21T21:42:26.481Z,48.90
2019-04-21T21:45:00.446Z,48.80
2019-04-21T21:47:39.363Z,48.80
2019-04-21T21:50:04.355Z,48.70
2019-04-21T21:52:36.675Z,48.70
2019-04-21T21:54:53.852Z,48.60
2019-04-21T21:57:22.913Z,48.60
2019-04-21T21:59:58.797Z,48.40
2019-04-21T22:02:31.902Z,48.50
2019-04-21T22:05:01.098Z,48.10
2019-04-21T22:07:24.847Z,48.30
2019-04-21T22:09:52.388Z,48.20
2019-04-21T22:12:22.100Z,48.10
2019-04-21T22:14:53.563Z,48.30
2019-04-21T22:17:36.776Z,48.00
2019-04-21T22:20:08.125Z,48.00
2019-04-21T22:22:32.780Z,48.00
2019-04-21T22:25:02.713Z,47.80
2019-04-21T22:27:21.548Z,48.00
2019-04-21T22:29:56.520Z,48.10
2019-04-21T22:32:26.639Z,48.10
2019-04-21T22:34:56.458Z,48.10
2019-04-21T22:37:33.858Z,48.10
2019-04-21T22:40:07.130Z,48.20
2019-04-21T22:42:27.089Z,48.20
2019-04-21T22:44:52.324Z,48.30
2019-04-21T22:47:26.936Z,48.30
2019-04-21T22:49:52.637Z,48.30
2019-04-21T22:52:26.075Z,48.50
2019-04-21T22:54:52.680Z,48.70
2019-04-21T22:57:24.878Z,48.80
2019-04-21T22:59:59.360Z,48.80
2019-04-21T23:02:27.967Z,49.00
2019-04-21T23:04:57.701Z,49.00
2019-04-21T23:07:25.830Z,49.10
2019-04-21T23:09:53.506Z,49.00
2019-04-21T23:12:28.216Z,48.90
2019-04-21T23:15:01.874Z,48.70
2019-04-21T23:17:37.854Z,48.60
2019-04-21T23:20:14.526Z,48.50
2019-04-21T23:22:51.352Z,48.40
2019-04-21T23:25:13.325Z,48.40
2019-04-21T23:27:40.610Z,48.40
2019-04-21T23:30:19.959Z,48.30
2019-04-21T23:32:33.845Z,48.50
2019-04-21T23:34:55.391Z,48.40
2019-04-21T23:37:25.588Z,48.40
2019-04-21T23:40:05.191Z,48.50
2019-04-21T23:42:32.797Z,48.30
2019-04-21T23:44:58.068Z,48.50
2019-04-21T23:47:37.009Z,48.40
2019-04-21T23:50:02.757Z,48.40
2019-04-21T23:52:25.512Z,48.60
2019-04-21T23:54:55.539Z,48.80
2019-04-21T23:57:30.428Z,49.00
2019-04-21T23:59:57.146Z,49.10
